Weather at Nyanza-Lac Airport [CLOSED]

Public forecast

Using degrees Celsius for public forecast. Weather courtesy of forecast.io.

Closest aviation weather report (METAR) to Nyanza-Lac Airport

Closest report is Kigoma Airport, 33.1 nm (61.3 km) S. Retrieved 2021/10/22 01:00 UTC (1 hour ago):

HTKA 220100Z 00000KT 9999 FEW021 SCT080 22/21 Q1013

Closest aviation forecast (TAF) to Nyanza-Lac Airport

Forecast is more than 12 hours old.

Closest forecast is Kigoma Airport, 33.1 nm (61.3 km) S. Retrieved 2021/08/13 12:21 UTC (2 months ago):

TAF HTKA 131100Z 1312/1412 21005KT CAVOK TEMPO 1312/1317 25010KT FEW022